createdAt,value
2022-09-04T00:03:39.237Z,101416.78
2022-09-04T00:10:47.380Z,101413.53
2022-09-04T00:17:58.574Z,101414.38
2022-09-04T00:25:09.282Z,101417.56
2022-09-04T00:32:34.871Z,101410.25
2022-09-04T00:39:48.244Z,101427.72
2022-09-04T00:47:11.943Z,101424.94
2022-09-04T00:54:16.505Z,101427.13
2022-09-04T01:01:27.036Z,101426.09
2022-09-04T01:08:47.289Z,101431.25
2022-09-04T01:15:52.028Z,101445.56
2022-09-04T01:23:19.714Z,101448.50
2022-09-04T01:30:21.378Z,101454.22
2022-09-04T01:38:00.127Z,101448.22
2022-09-04T01:45:01.839Z,101445.63
2022-09-04T01:52:06.022Z,101446.72
2022-09-04T01:59:30.104Z,101452.75
2022-09-04T02:06:46.882Z,101441.53
2022-09-04T02:13:53.693Z,101445.16
2022-09-04T02:21:32.697Z,101447.38
2022-09-04T02:29:02.359Z,101447.94
2022-09-04T02:36:23.813Z,101446.50
2022-09-04T02:43:43.521Z,101454.91
2022-09-04T02:51:19.118Z,101457.94
2022-09-04T02:58:44.084Z,101452.59
2022-09-04T03:06:07.899Z,101456.31
2022-09-04T03:13:39.361Z,101451.13
2022-09-04T03:20:58.827Z,101452.84
2022-09-04T03:28:00.859Z,101454.91
2022-09-04T03:35:30.459Z,101464.03
2022-09-04T03:42:54.184Z,101467.84
2022-09-04T03:50:11.081Z,101471.97
2022-09-04T03:57:48.092Z,101471.53
2022-09-04T04:05:10.350Z,101487.09
2022-09-04T04:12:39.206Z,101494.03
2022-09-04T04:20:24.205Z,101495.94
2022-09-04T04:27:33.518Z,101500.09
2022-09-04T04:35:13.034Z,101502.44
2022-09-04T04:42:18.300Z,101505.78
2022-09-04T04:49:51.478Z,101518.75
2022-09-04T04:57:16.303Z,101523.53
2022-09-04T05:04:38.485Z,101531.59
2022-09-04T05:12:07.591Z,101537.34
2022-09-04T05:19:32.706Z,101562.88
2022-09-04T05:26:47.719Z,101575.66
2022-09-04T05:33:51.833Z,101581.66
2022-09-04T05:41:13.521Z,101585.94
2022-09-04T05:48:25.047Z,101610.69
2022-09-04T05:56:03.277Z,101610.81
2022-09-04T06:03:25.044Z,101616.69
2022-09-04T06:11:04.108Z,101623.06
2022-09-04T06:18:18.439Z,101618.84
2022-09-04T06:25:30.818Z,101628.22
2022-09-04T06:32:54.464Z,101626.50
2022-09-04T06:40:12.129Z,101625.63
2022-09-04T06:47:20.056Z,101632.16
2022-09-04T06:54:24.706Z,101644.13
2022-09-04T07:01:40.194Z,101648.28
2022-09-04T07:09:11.163Z,101649.28
2022-09-04T07:16:25.194Z,101661.38
2022-09-04T07:23:48.909Z,101654.47
2022-09-04T07:30:53.743Z,101654.84
2022-09-04T07:38:26.287Z,101659.69
2022-09-04T07:46:05.382Z,101650.97
2022-09-04T07:53:34.268Z,101668.50
2022-09-04T08:00:51.402Z,101664.56
2022-09-04T08:08:05.000Z,101670.91
2022-09-04T08:21:31.419Z,101680.22
2022-09-04T08:28:53.284Z,101673.94
2022-09-04T08:35:55.246Z,101683.28
2022-09-04T08:43:22.635Z,101682.88
2022-09-04T08:50:46.946Z,101679.31
2022-09-04T08:57:54.743Z,101681.72
2022-09-04T09:05:21.314Z,101684.91
2022-09-04T09:12:28.369Z,101685.19
2022-09-04T09:19:46.642Z,101678.50
2022-09-04T09:27:07.298Z,101676.41
2022-09-04T09:34:31.064Z,101669.97
2022-09-04T09:41:32.590Z,101670.41
2022-09-04T09:48:50.565Z,101661.38
2022-09-04T09:56:19.646Z,101658.53
2022-09-04T10:03:39.599Z,101650.44
2022-09-04T10:11:04.566Z,101666.97
2022-09-04T10:18:23.070Z,101655.09
2022-09-04T10:25:43.146Z,101658.56
2022-09-04T10:33:11.274Z,101659.94
2022-09-04T10:40:48.023Z,101664.03
2022-09-04T10:48:04.630Z,101668.25
2022-09-04T10:55:30.287Z,101675.66
2022-09-04T11:02:53.162Z,101664.44
2022-09-04T11:10:06.973Z,101668.16
2022-09-04T11:17:47.077Z,101664.06
2022-09-04T11:25:19.073Z,101656.84
2022-09-04T11:32:42.534Z,101661.03
2022-09-04T11:40:18.182Z,101654.31
2022-09-04T11:47:36.665Z,101642.06
2022-09-04T11:54:49.184Z,101638.50
2022-09-04T12:02:15.236Z,101633.09
2022-09-04T12:09:22.935Z,101630.50
2022-09-04T12:16:48.897Z,101624.34
2022-09-04T12:24:12.580Z,101629.88
2022-09-04T12:31:39.413Z,101625.28
2022-09-04T12:39:29.884Z,101628.03
2022-09-04T12:46:41.101Z,101621.44
2022-09-04T12:53:52.992Z,101628.50
2022-09-04T13:01:23.118Z,101617.53
2022-09-04T13:08:43.880Z,101615.19
2022-09-04T13:16:33.766Z,101628.13
2022-09-04T13:23:47.842Z,101617.13
2022-09-04T13:31:00.028Z,101623.19
2022-09-04T13:38:27.342Z,101631.72
2022-09-04T13:45:50.044Z,101638.00
2022-09-04T13:52:57.959Z,101648.31
2022-09-04T14:00:02.725Z,101645.16
2022-09-04T14:07:10.581Z,101647.53
2022-09-04T14:14:21.538Z,101641.06
2022-09-04T14:21:31.393Z,101646.78
2022-09-04T14:28:43.761Z,101643.34
2022-09-04T14:35:59.814Z,101639.44
2022-09-04T14:43:31.930Z,101651.22
2022-09-04T14:50:42.913Z,101658.84
2022-09-04T14:58:10.976Z,101647.59
2022-09-04T15:05:17.349Z,101645.44
2022-09-04T15:12:31.238Z,101648.06
2022-09-04T15:19:46.448Z,101642.75
2022-09-04T15:27:49.838Z,101650.03
2022-09-04T15:35:06.507Z,101650.81
2022-09-04T15:42:09.334Z,101645.66
2022-09-04T15:49:29.526Z,101654.28
2022-09-04T15:56:34.905Z,101656.28
2022-09-04T16:04:01.122Z,101661.84
2022-09-04T16:11:06.754Z,101655.69
2022-09-04T16:18:15.840Z,101664.66
2022-09-04T16:25:31.139Z,101663.75
2022-09-04T16:32:34.108Z,101676.03
2022-09-04T16:39:36.239Z,101682.31
2022-09-04T16:46:39.843Z,101697.44
2022-09-04T16:53:52.446Z,101690.84
2022-09-04T17:01:09.167Z,101700.63
2022-09-04T17:08:31.180Z,101707.94
2022-09-04T17:15:53.507Z,101712.03
2022-09-04T17:28:54.429Z,101719.50
2022-09-04T17:31:06.515Z,101721.38
2022-09-04T17:40:52.231Z,101733.06
2022-09-04T17:46:02.151Z,101735.63
2022-09-04T17:53:08.211Z,101755.88
2022-09-04T18:00:24.851Z,101759.63
2022-09-04T18:08:07.956Z,101773.09
2022-09-04T18:15:34.024Z,101778.78
2022-09-04T18:22:43.803Z,101787.56
2022-09-04T18:31:11.290Z,101792.84
2022-09-04T18:37:44.437Z,101794.47
2022-09-04T18:50:33.352Z,101801.88
2022-09-04T18:52:16.976Z,101810.56
2022-09-04T18:59:31.039Z,101821.72
2022-09-04T19:06:35.370Z,101825.03
2022-09-04T19:13:43.941Z,101818.34
2022-09-04T19:21:14.637Z,101827.00
2022-09-04T19:28:25.735Z,101826.66
2022-09-04T19:35:59.859Z,101829.25
2022-09-04T19:46:14.128Z,101828.16
2022-09-04T19:53:33.327Z,101832.50
2022-09-04T19:58:09.020Z,101832.09
2022-09-04T20:05:37.088Z,101838.06
2022-09-04T20:12:48.929Z,101837.53
2022-09-04T20:19:56.602Z,101842.44
2022-09-04T20:27:05.928Z,101848.13
2022-09-04T20:34:19.327Z,101847.72
2022-09-04T20:41:35.959Z,101848.78
2022-09-04T20:52:48.976Z,101858.78
2022-09-04T20:57:42.174Z,101863.81
2022-09-04T21:04:42.135Z,101862.13
2022-09-04T21:11:52.219Z,101885.09
2022-09-04T21:19:28.357Z,101891.34
2022-09-04T21:26:53.992Z,101903.94
2022-09-04T21:34:07.584Z,101906.78
2022-09-04T21:41:14.403Z,101909.25
2022-09-04T21:48:40.603Z,101908.38
2022-09-04T22:02:30.400Z,101911.34
2022-09-04T22:03:36.904Z,101910.47
2022-09-04T22:13:38.286Z,101910.44
2022-09-04T22:18:47.562Z,101914.91
2022-09-04T22:26:26.771Z,101927.31
2022-09-04T22:34:14.321Z,101930.66
2022-09-04T22:41:44.628Z,101928.72
2022-09-04T22:48:59.591Z,101929.69
2022-09-04T22:56:24.594Z,101928.53
2022-09-04T23:03:33.308Z,101939.06
2022-09-04T23:13:50.738Z,101939.03
2022-09-04T23:21:10.537Z,101941.44
2022-09-04T23:26:47.559Z,101945.66
2022-09-04T23:34:21.855Z,101949.25
2022-09-04T23:42:01.800Z,101943.59
2022-09-04T23:49:17.635Z,101947.44
2022-09-04T23:56:30.046Z,101951.94
